sensor_id;sensor_type;location;lat;lon;timestamp;pressure;altitude;pressure_sealevel;temperature;humidity
13968;BME280;39536;52.198;9.920;2023-04-22T00:01:36;100215.50;;;12.38;100.00
13968;BME280;39536;52.198;9.920;2023-04-22T00:04:03;100216.31;;;12.40;100.00
13968;BME280;39536;52.198;9.920;2023-04-22T00:06:30;100213.56;;;12.43;100.00
13968;BME280;39536;52.198;9.920;2023-04-22T00:08:58;100206.03;;;12.35;100.00
13968;BME280;39536;52.198;9.920;2023-04-22T00:11:24;100204.56;;;12.30;100.00
13968;BME280;39536;52.198;9.920;2023-04-22T00:13:51;100197.69;;;12.27;100.00
13968;BME280;39536;52.198;9.920;2023-04-22T00:16:18;100185.66;;;12.24;100.00
13968;BME280;39536;52.198;9.920;2023-04-22T00:18:45;100189.16;;;12.23;100.00
13968;BME280;39536;52.198;9.920;2023-04-22T00:21:12;100186.91;;;12.16;100.00
13968;BME280;39536;52.198;9.920;2023-04-22T00:23:38;100193.09;;;12.13;100.00
13968;BME280;39536;52.198;9.920;2023-04-22T00:26:06;100185.91;;;11.99;100.00
13968;BME280;39536;52.198;9.920;2023-04-22T00:28:33;100194.56;;;12.00;100.00
13968;BME280;39536;52.198;9.920;2023-04-22T00:31:00;100183.22;;;12.01;100.00
13968;BME280;39536;52.198;9.920;2023-04-22T00:33:27;100190.25;;;11.99;100.00
13968;BME280;39536;52.198;9.920;2023-04-22T00:35:54;100187.72;;;11.97;100.00
13968;BME280;39536;52.198;9.920;2023-04-22T00:38:20;100180.22;;;11.90;100.00
13968;BME280;39536;52.198;9.920;2023-04-22T00:40:47;100184.31;;;11.95;100.00
13968;BME280;39536;52.198;9.920;2023-04-22T00:43:16;100185.81;;;12.01;100.00
13968;BME280;39536;52.198;9.920;2023-04-22T00:45:43;100181.97;;;11.89;100.00
13968;BME280;39536;52.198;9.920;2023-04-22T00:48:10;100179.88;;;11.77;100.00
13968;BME280;39536;52.198;9.920;2023-04-22T00:50:38;100172.97;;;11.76;100.00
13968;BME280;39536;52.198;9.920;2023-04-22T00:53:04;100179.63;;;11.63;100.00
13968;BME280;39536;52.198;9.920;2023-04-22T00:55:31;100182.16;;;11.64;100.00
13968;BME280;39536;52.198;9.920;2023-04-22T00:57:59;100175.25;;;11.63;100.00
13968;BME280;39536;52.198;9.920;2023-04-22T01:00:28;100180.59;;;11.60;100.00
13968;BME280;39536;52.198;9.920;2023-04-22T01:02:56;100174.53;;;11.60;100.00
13968;BME280;39536;52.198;9.920;2023-04-22T01:05:23;100174.41;;;11.63;100.00
13968;BME280;39536;52.198;9.920;2023-04-22T01:07:49;100185.81;;;11.60;100.00
13968;BME280;39536;52.198;9.920;2023-04-22T01:10:17;100180.38;;;11.65;100.00
13968;BME280;39536;52.198;9.920;2023-04-22T01:12:44;100188.28;;;11.63;100.00
13968;BME280;39536;52.198;9.920;2023-04-22T01:15:10;100191.69;;;11.65;100.00
13968;BME280;39536;52.198;9.920;2023-04-22T01:17:38;100180.34;;;11.66;100.00
13968;BME280;39536;52.198;9.920;2023-04-22T01:20:06;100178.84;;;11.40;100.00
13968;BME280;39536;52.198;9.920;2023-04-22T01:22:35;100181.38;;;11.42;100.00
13968;BME280;39536;52.198;9.920;2023-04-22T01:25:06;100178.09;;;11.37;100.00
13968;BME280;39536;52.198;9.920;2023-04-22T01:27:34;100185.47;;;11.27;100.00
13968;BME280;39536;52.198;9.920;2023-04-22T01:30:01;100187.09;;;11.29;100.00
13968;BME280;39536;52.198;9.920;2023-04-22T01:32:28;100174.72;;;11.35;100.00
13968;BME280;39536;52.198;9.920;2023-04-22T01:34:56;100177.50;;;11.30;100.00
13968;BME280;39536;52.198;9.920;2023-04-22T01:37:23;100182.59;;;11.33;100.00
13968;BME280;39536;52.198;9.920;2023-04-22T01:39:50;100178.34;;;11.30;100.00
13968;BME280;39536;52.198;9.920;2023-04-22T01:42:19;100175.94;;;11.26;100.00
13968;BME280;39536;52.198;9.920;2023-04-22T01:44:46;100169.19;;;11.22;100.00
13968;BME280;39536;52.198;9.920;2023-04-22T01:47:12;100166.88;;;11.14;100.00
13968;BME280;39536;52.198;9.920;2023-04-22T01:49:39;100170.56;;;11.08;100.00
13968;BME280;39536;52.198;9.920;2023-04-22T01:52:05;100168.97;;;11.06;100.00
13968;BME280;39536;52.198;9.920;2023-04-22T01:54:32;100170.66;;;10.85;100.00
13968;BME280;39536;52.198;9.920;2023-04-22T01:57:07;100171.38;;;10.89;100.00
13968;BME280;39536;52.198;9.920;2023-04-22T01:59:36;100178.41;;;10.86;100.00
13968;BME280;39536;52.198;9.920;2023-04-22T02:02:03;100168.66;;;10.70;100.00
13968;BME280;39536;52.198;9.920;2023-04-22T02:04:29;100172.78;;;10.75;100.00
13968;BME280;39536;52.198;9.920;2023-04-22T02:06:56;100171.06;;;10.74;100.00
13968;BME280;39536;52.198;9.920;2023-04-22T02:09:22;100174.53;;;10.75;100.00
13968;BME280;39536;52.198;9.920;2023-04-22T02:11:49;100171.13;;;10.73;100.00
13968;BME280;39536;52.198;9.920;2023-04-22T02:14:16;100168.53;;;10.73;100.00
13968;BME280;39536;52.198;9.920;2023-04-22T02:16:44;100168.66;;;10.70;100.00
13968;BME280;39536;52.198;9.920;2023-04-22T02:19:10;100172.75;;;10.53;100.00
13968;BME280;39536;52.198;9.920;2023-04-22T02:21:37;100167.34;;;10.58;100.00
13968;BME280;39536;52.198;9.920;2023-04-22T02:24:04;100154.66;;;10.50;100.00
13968;BME280;39536;52.198;9.920;2023-04-22T02:26:30;100152.81;;;10.52;100.00
13968;BME280;39536;52.198;9.920;2023-04-22T02:28:57;100155.13;;;10.60;100.00
13968;BME280;39536;52.198;9.920;2023-04-22T02:31:24;100159.16;;;10.69;100.00
13968;BME280;39536;52.198;9.920;2023-04-22T02:33:52;100150.19;;;10.76;100.00
13968;BME280;39536;52.198;9.920;2023-04-22T02:36:18;100161.88;;;10.88;100.00
13968;BME280;39536;52.198;9.920;2023-04-22T02:38:45;100158.34;;;10.89;100.00
13968;BME280;39536;52.198;9.920;2023-04-22T02:41:11;100162.72;;;10.88;100.00
13968;BME280;39536;52.198;9.920;2023-04-22T02:43:38;100155.03;;;10.85;100.00
13968;BME280;39536;52.198;9.920;2023-04-22T02:46:06;100159.38;;;10.84;100.00
13968;BME280;39536;52.198;9.920;2023-04-22T02:48:37;100157.53;;;10.86;100.00
13968;BME280;39536;52.198;9.920;2023-04-22T02:51:05;100159.91;;;10.93;100.00
13968;BME280;39536;52.198;9.920;2023-04-22T02:53:32;100152.75;;;10.98;100.00
13968;BME280;39536;52.198;9.920;2023-04-22T02:55:59;100153.44;;;11.03;100.00
13968;BME280;39536;52.198;9.920;2023-04-22T02:58:25;100155.28;;;10.99;100.00
13968;BME280;39536;52.198;9.920;2023-04-22T03:00:52;100161.44;;;10.98;100.00
13968;BME280;39536;52.198;9.920;2023-04-22T03:03:21;100157.72;;;11.04;100.00
13968;BME280;39536;52.198;9.920;2023-04-22T03:05:47;100152.66;;;11.01;100.00
13968;BME280;39536;52.198;9.920;2023-04-22T03:08:24;100154.53;;;10.97;100.00
13968;BME280;39536;52.198;9.920;2023-04-22T03:10:50;100150.22;;;10.96;100.00
13968;BME280;39536;52.198;9.920;2023-04-22T03:13:17;100152.09;;;10.93;100.00
13968;BME280;39536;52.198;9.920;2023-04-22T03:15:43;100147.38;;;10.80;100.00
13968;BME280;39536;52.198;9.920;2023-04-22T03:18:10;100147.38;;;10.80;100.00
13968;BME280;39536;52.198;9.920;2023-04-22T03:20:37;100145.88;;;10.75;100.00
13968;BME280;39536;52.198;9.920;2023-04-22T03:23:03;100145.75;;;10.78;100.00
13968;BME280;39536;52.198;9.920;2023-04-22T03:25:32;100152.09;;;10.71;100.00
13968;BME280;39536;52.198;9.920;2023-04-22T03:27:59;100151.00;;;10.76;100.00
13968;BME280;39536;52.198;9.920;2023-04-22T03:30:26;100152.28;;;10.66;100.00
13968;BME280;39536;52.198;9.920;2023-04-22T03:32:52;100155.50;;;10.51;100.00
13968;BME280;39536;52.198;9.920;2023-04-22T03:35:19;100148.53;;;10.51;100.00
13968;BME280;39536;52.198;9.920;2023-04-22T03:37:45;100149.59;;;10.46;100.00
13968;BME280;39536;52.198;9.920;2023-04-22T03:40:12;100142.47;;;10.51;100.00
13968;BME280;39536;52.198;9.920;2023-04-22T03:42:40;100150.56;;;10.43;100.00
13968;BME280;39536;52.198;9.920;2023-04-22T03:45:07;100146.47;;;10.37;100.00
13968;BME280;39536;52.198;9.920;2023-04-22T03:47:34;100151.59;;;10.39;100.00
13968;BME280;39536;52.198;9.920;2023-04-22T03:50:00;100145.47;;;10.40;100.00
13968;BME280;39536;52.198;9.920;2023-04-22T03:52:27;100141.78;;;10.46;100.00
13968;BME280;39536;52.198;9.920;2023-04-22T03:54:54;100144.47;;;10.44;100.00
13968;BME280;39536;52.198;9.920;2023-04-22T03:57:20;100149.59;;;10.46;100.00
13968;BME280;39536;52.198;9.920;2023-04-22T03:59:48;100142.41;;;10.52;100.00
13968;BME280;39536;52.198;9.920;2023-04-22T04:02:15;100141.28;;;10.59;100.00
13968;BME280;39536;52.198;9.920;2023-04-22T04:04:41;100143.88;;;10.59;100.00
13968;BME280;39536;52.198;9.920;2023-04-22T04:07:08;100136.72;;;10.64;100.00
13968;BME280;39536;52.198;9.920;2023-04-22T04:09:35;100137.44;;;10.68;100.00
13968;BME280;39536;52.198;9.920;2023-04-22T04:12:01;100133.25;;;10.64;100.00
13968;BME280;39536;52.198;9.920;2023-04-22T04:14:28;100125.13;;;10.50;100.00
13968;BME280;39536;52.198;9.920;2023-04-22T04:16:56;100132.94;;;10.50;100.00
13968;BME280;39536;52.198;9.920;2023-04-22T04:19:23;100136.59;;;10.46;100.00
13968;BME280;39536;52.198;9.920;2023-04-22T04:21:49;100139.25;;;10.44;100.00
13968;BME280;39536;52.198;9.920;2023-04-22T04:24:16;100137.53;;;10.43;100.00
13968;BME280;39536;52.198;9.920;2023-04-22T04:26:43;100133.84;;;10.49;100.00
13968;BME280;39536;52.198;9.920;2023-04-22T04:29:09;100137.84;;;10.35;100.00
13968;BME280;39536;52.198;9.920;2023-04-22T04:31:37;100142.75;;;10.43;100.00
13968;BME280;39536;52.198;9.920;2023-04-22T04:34:05;100134.09;;;10.43;100.00
13968;BME280;39536;52.198;9.920;2023-04-22T04:36:32;100125.31;;;10.45;100.00
13968;BME280;39536;52.198;9.920;2023-04-22T04:38:59;100138.91;;;10.53;100.00
13968;BME280;39536;52.198;9.920;2023-04-22T04:41:25;100137.16;;;10.54;100.00
13968;BME280;39536;52.198;9.920;2023-04-22T04:43:52;100128.91;;;10.64;100.00
13968;BME280;39536;52.198;9.920;2023-04-22T04:46:19;100130.53;;;10.67;100.00
13968;BME280;39536;52.198;9.920;2023-04-22T04:48:46;100127.78;;;10.72;100.00
13968;BME280;39536;52.198;9.920;2023-04-22T04:51:16;100127.56;;;10.76;100.00
13968;BME280;39536;52.198;9.920;2023-04-22T04:53:43;100123.63;;;10.88;100.00
13968;BME280;39536;52.198;9.920;2023-04-22T04:56:09;100126.63;;;10.99;100.00
13968;BME280;39536;52.198;9.920;2023-04-22T04:58:36;100123.91;;;11.02;100.00
13968;BME280;39536;52.198;9.920;2023-04-22T05:01:02;100125.38;;;11.09;100.00
13968;BME280;39536;52.198;9.920;2023-04-22T05:03:29;100126.78;;;11.17;100.00
13968;BME280;39536;52.198;9.920;2023-04-22T05:05:55;100127.50;;;11.20;100.00
13968;BME280;39536;52.198;9.920;2023-04-22T05:08:24;100127.06;;;11.31;100.00
13968;BME280;39536;52.198;9.920;2023-04-22T05:10:50;100118.31;;;11.32;100.00
13968;BME280;39536;52.198;9.920;2023-04-22T05:13:17;100127.28;;;11.47;100.00
13968;BME280;39536;52.198;9.920;2023-04-22T05:15:43;100124.25;;;11.56;100.00
13968;BME280;39536;52.198;9.920;2023-04-22T05:18:10;100119.69;;;11.61;100.00
13968;BME280;39536;52.198;9.920;2023-04-22T05:20:37;100114.63;;;11.77;100.00
13968;BME280;39536;52.198;9.920;2023-04-22T05:23:03;100115.97;;;11.87;100.00
13968;BME280;39536;52.198;9.920;2023-04-22T05:25:31;100107.38;;;12.04;100.00
13968;BME280;39536;52.198;9.920;2023-04-22T05:27:58;100106.84;;;12.15;100.00
13968;BME280;39536;52.198;9.920;2023-04-22T05:30:24;100113.00;;;12.33;100.00
13968;BME280;39536;52.198;9.920;2023-04-22T05:32:51;100116.72;;;12.46;100.00
13968;BME280;39536;52.198;9.920;2023-04-22T05:35:18;100116.78;;;12.63;100.00
13968;BME280;39536;52.198;9.920;2023-04-22T05:37:44;100114.66;;;12.71;100.00
13968;BME280;39536;52.198;9.920;2023-04-22T05:40:11;100124.53;;;12.84;100.00
13968;BME280;39536;52.198;9.920;2023-04-22T05:42:39;100119.44;;;12.98;100.00
13968;BME280;39536;52.198;9.920;2023-04-22T05:45:07;100113.31;;;13.16;100.00
13968;BME280;39536;52.198;9.920;2023-04-22T05:47:33;100116.03;;;13.32;100.00
13968;BME280;39536;52.198;9.920;2023-04-22T05:50:00;100122.41;;;13.44;100.00
13968;BME280;39536;52.198;9.920;2023-04-22T05:52:27;100114.72;;;13.58;100.00
13968;BME280;39536;52.198;9.920;2023-04-22T05:54:54;100111.28;;;13.74;100.00
13968;BME280;39536;52.198;9.920;2023-04-22T05:57:21;100108.88;;;13.86;100.00
13968;BME280;39536;52.198;9.920;2023-04-22T05:59:49;100109.81;;;14.01;100.00
13968;BME280;39536;52.198;9.920;2023-04-22T06:02:15;100114.22;;;14.17;100.00
13968;BME280;39536;52.198;9.920;2023-04-22T06:04:42;100109.16;;;14.29;100.00
13968;BME280;39536;52.198;9.920;2023-04-22T06:07:09;100108.63;;;14.39;100.00
13968;BME280;39536;52.198;9.920;2023-04-22T06:09:35;100115.25;;;14.46;100.00
13968;BME280;39536;52.198;9.920;2023-04-22T06:12:02;100113.06;;;14.54;100.00
13968;BME280;39536;52.198;9.920;2023-04-22T06:14:29;100114.94;;;14.68;100.00
13968;BME280;39536;52.198;9.920;2023-04-22T06:16:57;100104.66;;;14.79;100.00
13968;BME280;39536;52.198;9.920;2023-04-22T06:19:23;100111.84;;;14.91;100.00
13968;BME280;39536;52.198;9.920;2023-04-22T06:21:50;100110.28;;;15.03;100.00
13968;BME280;39536;52.198;9.920;2023-04-22T06:24:17;100107.72;;;15.17;100.00
13968;BME280;39536;52.198;9.920;2023-04-22T06:26:44;100106.06;;;15.31;100.00
13968;BME280;39536;52.198;9.920;2023-04-22T06:29:11;100101.84;;;15.42;100.00
13968;BME280;39536;52.198;9.920;2023-04-22T06:31:37;100109.91;;;15.54;100.00
13968;BME280;39536;52.198;9.920;2023-04-22T06:34:05;100114.81;;;15.60;100.00
13968;BME280;39536;52.198;9.920;2023-04-22T06:36:32;100109.13;;;15.67;100.00
13968;BME280;39536;52.198;9.920;2023-04-22T06:39:01;100106.78;;;15.77;100.00
13968;BME280;39536;52.198;9.920;2023-04-22T06:41:29;100107.06;;;15.87;100.00
13968;BME280;39536;52.198;9.920;2023-04-22T06:43:56;100105.19;;;16.03;100.00
13968;BME280;39536;52.198;9.920;2023-04-22T06:46:22;100104.31;;;16.17;100.00
13968;BME280;39536;52.198;9.920;2023-04-22T06:48:49;100105.50;;;16.26;100.00
13968;BME280;39536;52.198;9.920;2023-04-22T06:51:17;100090.88;;;16.36;100.00
13968;BME280;39536;52.198;9.920;2023-04-22T06:53:44;100086.97;;;16.42;100.00
13968;BME280;39536;52.198;9.920;2023-04-22T06:56:10;100089.78;;;16.53;100.00
13968;BME280;39536;52.198;9.920;2023-04-22T06:58:37;100088.03;;;16.66;100.00
13968;BME280;39536;52.198;9.920;2023-04-22T07:01:03;100083.41;;;16.70;100.00
13968;BME280;39536;52.198;9.920;2023-04-22T07:03:30;100085.06;;;16.85;100.00
13968;BME280;39536;52.198;9.920;2023-04-22T07:05:57;100089.50;;;16.97;100.00
13968;BME280;39536;52.198;9.920;2023-04-22T07:08:25;100083.97;;;17.02;100.00
13968;BME280;39536;52.198;9.920;2023-04-22T07:10:51;100088.91;;;17.19;100.00
13968;BME280;39536;52.198;9.920;2023-04-22T07:13:18;100097.06;;;17.29;100.00
13968;BME280;39536;52.198;9.920;2023-04-22T07:15:44;100101.47;;;17.28;100.00
13968;BME280;39536;52.198;9.920;2023-04-22T07:18:11;100099.69;;;17.29;100.00
13968;BME280;39536;52.198;9.920;2023-04-22T07:20:38;100096.00;;;17.44;100.00
13968;BME280;39536;52.198;9.920;2023-04-22T07:23:04;100088.13;;;17.57;100.00
13968;BME280;39536;52.198;9.920;2023-04-22T07:25:32;100084.84;;;17.66;100.00
13968;BME280;39536;52.198;9.920;2023-04-22T07:27:59;100080.09;;;17.71;100.00
13968;BME280;39536;52.198;9.920;2023-04-22T07:30:25;100067.97;;;17.82;100.00
13968;BME280;39536;52.198;9.920;2023-04-22T07:32:52;100075.38;;;17.89;100.00
13968;BME280;39536;52.198;9.920;2023-04-22T07:35:19;100081.34;;;18.04;100.00
13968;BME280;39536;52.198;9.920;2023-04-22T07:37:46;100072.56;;;18.16;100.00
13968;BME280;39536;52.198;9.920;2023-04-22T07:40:12;100081.09;;;18.20;100.00
13968;BME280;39536;52.198;9.920;2023-04-22T07:42:41;100079.69;;;18.27;100.00
13968;BME280;39536;52.198;9.920;2023-04-22T07:45:07;100073.16;;;18.33;100.00
13968;BME280;39536;52.198;9.920;2023-04-22T07:47:34;100065.00;;;18.36;100.00
13968;BME280;39536;52.198;9.920;2023-04-22T07:50:01;100067.53;;;18.37;100.00
13968;BME280;39536;52.198;9.920;2023-04-22T07:52:27;100072.34;;;18.43;100.00
13968;BME280;39536;52.198;9.920;2023-04-22T07:54:54;100070.00;;;18.52;99.59
13968;BME280;39536;52.198;9.920;2023-04-22T07:57:21;100071.63;;;18.65;100.00
13968;BME280;39536;52.198;9.920;2023-04-22T07:59:50;100073.94;;;18.70;98.49
13968;BME280;39536;52.198;9.920;2023-04-22T08:02:17;100070.97;;;18.75;95.87
13968;BME280;39536;52.198;9.920;2023-04-22T08:04:43;100068.38;;;18.86;97.28
13968;BME280;39536;52.198;9.920;2023-04-22T08:07:10;100067.09;;;18.91;94.65
13968;BME280;39536;52.198;9.920;2023-04-22T08:09:37;100067.78;;;18.93;96.38
13968;BME280;39536;52.198;9.920;2023-04-22T08:12:03;100062.28;;;18.97;93.56
13968;BME280;39536;52.198;9.920;2023-04-22T08:14:30;100065.53;;;19.00;92.72
13968;BME280;39536;52.198;9.920;2023-04-22T08:16:58;100066.03;;;19.05;92.46
13968;BME280;39536;52.198;9.920;2023-04-22T08:19:25;100054.91;;;19.13;91.74
13968;BME280;39536;52.198;9.920;2023-04-22T08:21:51;100060.81;;;19.17;93.78
13968;BME280;39536;52.198;9.920;2023-04-22T08:24:18;100062.00;;;19.24;90.59
13968;BME280;39536;52.198;9.920;2023-04-22T08:26:45;100060.34;;;19.34;91.74
13968;BME280;39536;52.198;9.920;2023-04-22T08:29:11;100063.09;;;19.44;91.48
13968;BME280;39536;52.198;9.920;2023-04-22T08:31:38;100051.50;;;19.57;92.38
13968;BME280;39536;52.198;9.920;2023-04-22T08:34:06;100049.09;;;19.66;89.75
13968;BME280;39536;52.198;9.920;2023-04-22T08:36:33;100047.44;;;19.76;89.91
13968;BME280;39536;52.198;9.920;2023-04-22T08:39:00;100049.09;;;19.77;86.12
13968;BME280;39536;52.198;9.920;2023-04-22T08:41:26;100048.72;;;19.93;87.71
13968;BME280;39536;52.198;9.920;2023-04-22T08:43:54;100050.06;;;19.98;85.48
13968;BME280;39536;52.198;9.920;2023-04-22T08:46:21;100052.22;;;19.93;85.23
13968;BME280;39536;52.198;9.920;2023-04-22T08:48:49;100046.31;;;20.01;85.49
13968;BME280;39536;52.198;9.920;2023-04-22T08:51:17;100048.72;;;20.04;84.29
13968;BME280;39536;52.198;9.920;2023-04-22T08:53:44;100058.22;;;20.06;84.25
13968;BME280;39536;52.198;9.920;2023-04-22T08:56:11;100052.94;;;20.06;85.75
13968;BME280;39536;52.198;9.920;2023-04-22T08:58:39;100048.69;;;20.15;85.25
13968;BME280;39536;52.198;9.920;2023-04-22T09:01:06;100040.88;;;20.14;84.84
13968;BME280;39536;52.198;9.920;2023-04-22T09:03:33;100050.34;;;20.27;84.34
13968;BME280;39536;52.198;9.920;2023-04-22T09:06:03;100042.97;;;20.42;84.00
13968;BME280;39536;52.198;9.920;2023-04-22T09:08:31;100030.91;;;20.49;83.52
13968;BME280;39536;52.198;9.920;2023-04-22T09:10:58;100037.03;;;20.61;85.01
13968;BME280;39536;52.198;9.920;2023-04-22T09:13:25;100035.69;;;20.67;81.70
13968;BME280;39536;52.198;9.920;2023-04-22T09:15:52;100039.31;;;20.66;80.88
13968;BME280;39536;52.198;9.920;2023-04-22T09:18:19;100037.59;;;20.76;81.07
13968;BME280;39536;52.198;9.920;2023-04-22T09:20:47;100028.88;;;20.85;79.51
13968;BME280;39536;52.198;9.920;2023-04-22T09:23:14;100023.25;;;20.99;81.96
13968;BME280;39536;52.198;9.920;2023-04-22T09:25:43;100029.06;;;21.14;83.85
13968;BME280;39536;52.198;9.920;2023-04-22T09:28:11;100012.84;;;21.29;83.17
13968;BME280;39536;52.198;9.920;2023-04-22T09:30:38;100017.69;;;21.44;81.41
13968;BME280;39536;52.198;9.920;2023-04-22T09:33:06;100015.63;;;21.58;82.04
13968;BME280;39536;52.198;9.920;2023-04-22T09:35:34;100013.28;;;21.64;77.49
13968;BME280;39536;52.198;9.920;2023-04-22T09:38:03;100005.34;;;21.64;76.12
13968;BME280;39536;52.198;9.920;2023-04-22T09:40:31;100006.88;;;21.67;77.46
13968;BME280;39536;52.198;9.920;2023-04-22T09:43:01;100008.56;;;21.68;74.79
13968;BME280;39536;52.198;9.920;2023-04-22T09:45:30;100008.59;;;21.78;71.86
13968;BME280;39536;52.198;9.920;2023-04-22T09:48:00;100008.19;;;21.82;70.27
13968;BME280;39536;52.198;9.920;2023-04-22T09:50:28;100005.41;;;21.84;68.66
13968;BME280;39536;52.198;9.920;2023-04-22T09:52:58;100004.00;;;21.80;68.33
13968;BME280;39536;52.198;9.920;2023-04-22T09:55:25;99990.72;;;21.80;67.72
13968;BME280;39536;52.198;9.920;2023-04-22T09:57:53;99997.31;;;21.85;65.96
13968;BME280;39536;52.198;9.920;2023-04-22T10:00:24;99991.03;;;21.86;66.50
13968;BME280;39536;52.198;9.920;2023-04-22T10:02:52;99984.22;;;21.94;66.98
13968;BME280;39536;52.198;9.920;2023-04-22T10:05:19;99993.84;;;22.04;68.98
13968;BME280;39536;52.198;9.920;2023-04-22T10:07:46;99980.19;;;22.09;71.72
13968;BME280;39536;52.198;9.920;2023-04-22T10:10:13;99990.66;;;22.10;74.41
13968;BME280;39536;52.198;9.920;2023-04-22T10:12:40;99978.53;;;22.27;71.59
13968;BME280;39536;52.198;9.920;2023-04-22T10:15:08;99980.66;;;22.53;71.16
13968;BME280;39536;52.198;9.920;2023-04-22T10:17:37;99976.72;;;22.67;66.91
13968;BME280;39536;52.198;9.920;2023-04-22T10:20:06;99972.38;;;22.75;62.29
13968;BME280;39536;52.198;9.920;2023-04-22T10:22:39;99968.06;;;22.65;62.67
13968;BME280;39536;52.198;9.920;2023-04-22T10:25:10;99971.00;;;22.71;64.00
13968;BME280;39536;52.198;9.920;2023-04-22T10:27:37;99965.53;;;22.82;62.48
13968;BME280;39536;52.198;9.920;2023-04-22T10:30:07;99964.81;;;22.90;62.17
13968;BME280;39536;52.198;9.920;2023-04-22T10:32:33;99970.53;;;22.86;62.12
13968;BME280;39536;52.198;9.920;2023-04-22T10:35:10;99968.97;;;22.93;61.40
13968;BME280;39536;52.198;9.920;2023-04-22T10:37:41;99971.66;;;23.02;62.34
13968;BME280;39536;52.198;9.920;2023-04-22T10:40:11;99963.13;;;23.09;60.44
13968;BME280;39536;52.198;9.920;2023-04-22T10:42:41;99963.53;;;23.04;60.20
13968;BME280;39536;52.198;9.920;2023-04-22T10:45:11;99962.56;;;23.05;61.00
13968;BME280;39536;52.198;9.920;2023-04-22T10:47:39;99957.06;;;23.16;60.88
13968;BME280;39536;52.198;9.920;2023-04-22T10:50:16;99960.72;;;23.15;59.01
13968;BME280;39536;52.198;9.920;2023-04-22T10:52:47;99961.63;;;23.34;57.72
13968;BME280;39536;52.198;9.920;2023-04-22T10:55:14;99961.59;;;23.43;56.85
13968;BME280;39536;52.198;9.920;2023-04-22T10:57:42;99958.47;;;23.48;57.37
13968;BME280;39536;52.198;9.920;2023-04-22T11:00:23;99957.59;;;23.57;57.44
13968;BME280;39536;52.198;9.920;2023-04-22T11:02:52;99956.00;;;23.74;55.72
13968;BME280;39536;52.198;9.920;2023-04-22T11:05:22;99956.31;;;23.61;56.32
13968;BME280;39536;52.198;9.920;2023-04-22T11:07:52;99950.84;;;23.63;56.61
13968;BME280;39536;52.198;9.920;2023-04-22T11:10:36;99942.16;;;23.70;60.04
13968;BME280;39536;52.198;9.920;2023-04-22T11:13:06;99944.59;;;23.82;58.98
13968;BME280;39536;52.198;9.920;2023-04-22T11:15:34;99937.63;;;23.98;57.73
13968;BME280;39536;52.198;9.920;2023-04-22T11:18:02;99944.16;;;24.04;56.99
13968;BME280;39536;52.198;9.920;2023-04-22T11:20:30;99942.19;;;24.06;56.18
13968;BME280;39536;52.198;9.920;2023-04-22T11:22:57;99936.94;;;23.96;54.53
13968;BME280;39536;52.198;9.920;2023-04-22T11:25:24;99929.16;;;23.58;55.13
13968;BME280;39536;52.198;9.920;2023-04-22T11:27:52;99929.84;;;23.69;57.15
13968;BME280;39536;52.198;9.920;2023-04-22T11:30:20;99923.72;;;23.87;57.77
13968;BME280;39536;52.198;9.920;2023-04-22T11:32:48;99927.84;;;23.99;57.54
13968;BME280;39536;52.198;9.920;2023-04-22T11:35:18;99926.22;;;24.06;59.95
13968;BME280;39536;52.198;9.920;2023-04-22T11:37:49;99928.97;;;24.14;56.86
13968;BME280;39536;52.198;9.920;2023-04-22T11:40:17;99928.06;;;24.06;54.23
13968;BME280;39536;52.198;9.920;2023-04-22T11:42:44;99923.97;;;24.11;55.81
13968;BME280;39536;52.198;9.920;2023-04-22T11:45:11;99918.47;;;24.31;53.24
13968;BME280;39536;52.198;9.920;2023-04-22T11:47:38;99913.28;;;24.29;52.84
13968;BME280;39536;52.198;9.920;2023-04-22T11:50:07;99920.00;;;24.15;54.07
13968;BME280;39536;52.198;9.920;2023-04-22T11:52:43;99909.78;;;24.11;54.93
13968;BME280;39536;52.198;9.920;2023-04-22T11:55:12;99903.56;;;24.20;55.69
13968;BME280;39536;52.198;9.920;2023-04-22T11:57:39;99909.56;;;24.22;55.16
13968;BME280;39536;52.198;9.920;2023-04-22T12:00:09;99891.31;;;24.27;55.29
13968;BME280;39536;52.198;9.920;2023-04-22T12:02:36;99900.97;;;24.46;56.65
13968;BME280;39536;52.198;9.920;2023-04-22T12:05:03;99897.13;;;24.66;55.86
13968;BME280;39536;52.198;9.920;2023-04-22T12:07:30;99893.38;;;24.77;55.85
13968;BME280;39536;52.198;9.920;2023-04-22T12:09:57;99896.44;;;24.64;54.99
13968;BME280;39536;52.198;9.920;2023-04-22T12:12:27;99886.91;;;24.80;52.21
13968;BME280;39536;52.198;9.920;2023-04-22T12:14:54;99880.78;;;24.61;52.10
13968;BME280;39536;52.198;9.920;2023-04-22T12:17:22;99875.16;;;24.64;52.09
13968;BME280;39536;52.198;9.920;2023-04-22T12:19:52;99886.16;;;24.70;54.69
13968;BME280;39536;52.198;9.920;2023-04-22T12:22:24;99872.63;;;24.63;52.43
13968;BME280;39536;52.198;9.920;2023-04-22T12:24:51;99874.25;;;24.56;53.07
13968;BME280;39536;52.198;9.920;2023-04-22T12:27:17;99873.03;;;24.32;51.50
13968;BME280;39536;52.198;9.920;2023-04-22T12:29:51;99867.69;;;24.24;53.14
13968;BME280;39536;52.198;9.920;2023-04-22T12:32:19;99864.16;;;24.41;54.00
13968;BME280;39536;52.198;9.920;2023-04-22T12:34:46;99856.84;;;24.70;53.75
13968;BME280;39536;52.198;9.920;2023-04-22T12:37:12;99851.97;;;24.91;51.87
13968;BME280;39536;52.198;9.920;2023-04-22T12:39:39;99856.28;;;24.92;50.39
13968;BME280;39536;52.198;9.920;2023-04-22T12:42:06;99852.00;;;24.65;46.78
13968;BME280;39536;52.198;9.920;2023-04-22T12:44:32;99863.44;;;24.57;48.95
13968;BME280;39536;52.198;9.920;2023-04-22T12:47:01;99854.41;;;24.50;49.85